createdAt,value
2023-03-10T00:00:44.031Z,100.00
2023-03-10T00:05:56.453Z,100.00
2023-03-10T00:11:00.621Z,100.00
2023-03-10T00:16:05.586Z,100.00
2023-03-10T00:21:08.324Z,100.00
2023-03-10T00:26:10.666Z,100.00
2023-03-10T00:31:13.366Z,100.00
2023-03-10T00:36:17.556Z,100.00
2023-03-10T00:41:20.723Z,100.00
2023-03-10T00:46:34.303Z,100.00
2023-03-10T00:51:37.451Z,100.00
2023-03-10T00:56:39.937Z,100.00
2023-03-10T01:01:42.460Z,100.00
2023-03-10T01:06:47.424Z,100.00
2023-03-10T01:11:50.176Z,100.00
2023-03-10T01:16:52.893Z,100.00
2023-03-10T01:21:55.967Z,100.00
2023-03-10T01:27:00.637Z,100.00
2023-03-10T01:32:03.006Z,100.00
2023-03-10T01:37:05.821Z,100.00
2023-03-10T01:42:08.216Z,100.00
2023-03-10T01:47:11.513Z,100.00
2023-03-10T01:52:13.817Z,100.00
2023-03-10T01:57:16.131Z,100.00
2023-03-10T02:02:19.511Z,100.00
2023-03-10T02:07:22.756Z,100.00
2023-03-10T02:12:25.013Z,100.00
2023-03-10T02:17:37.447Z,100.00
2023-03-10T02:22:40.262Z,100.00
2023-03-10T02:27:42.598Z,100.00
2023-03-10T02:32:45.417Z,100.00
2023-03-10T02:37:50.723Z,100.00
2023-03-10T02:42:53.425Z,100.00
2023-03-10T02:47:56.701Z,100.00
2023-03-10T02:52:59.456Z,100.00
2023-03-10T02:58:02.574Z,100.00
2023-03-10T03:03:05.774Z,100.00
2023-03-10T03:08:08.178Z,100.00
2023-03-10T03:13:20.434Z,100.00
2023-03-10T03:18:33.604Z,100.00
2023-03-10T03:23:36.524Z,100.00
2023-03-10T03:28:39.068Z,100.00
2023-03-10T03:33:42.577Z,100.00
2023-03-10T03:38:45.001Z,100.00
2023-03-10T03:43:48.207Z,100.00
2023-03-10T03:48:51.319Z,100.00
2023-03-10T03:53:53.746Z,100.00
2023-03-10T03:58:56.139Z,100.00
2023-03-10T04:03:58.652Z,100.00
2023-03-10T04:09:01.071Z,100.00
2023-03-10T04:14:03.434Z,100.00
2023-03-10T04:19:07.651Z,100.00
2023-03-10T04:24:10.187Z,100.00
2023-03-10T04:29:15.048Z,100.00
2023-03-10T04:34:17.722Z,100.00
2023-03-10T04:39:20.439Z,100.00
2023-03-10T04:44:30.931Z,100.00
2023-03-10T04:49:33.871Z,100.00
2023-03-10T04:54:36.656Z,100.00
2023-03-10T04:59:39.009Z,100.00
2023-03-10T05:04:42.157Z,100.00
2023-03-10T05:09:45.610Z,100.00
2023-03-10T05:14:48.236Z,100.00
2023-03-10T05:19:50.989Z,100.00
2023-03-10T05:24:53.958Z,100.00
2023-03-10T05:29:57.105Z,100.00
2023-03-10T05:34:59.433Z,100.00
2023-03-10T05:40:01.904Z,100.00
2023-03-10T05:45:05.346Z,100.00
2023-03-10T05:50:08.447Z,100.00
2023-03-10T05:55:10.748Z,100.00
2023-03-10T06:00:13.637Z,100.00
2023-03-10T06:05:25.945Z,100.00
2023-03-10T06:10:28.303Z,100.00
2023-03-10T06:15:34.115Z,100.00
2023-03-10T06:20:36.927Z,100.00
2023-03-10T06:25:39.211Z,100.00
2023-03-10T06:30:42.383Z,100.00
2023-03-10T06:35:44.861Z,100.00
2023-03-10T06:40:47.193Z,100.00
2023-03-10T06:45:49.803Z,100.00
2023-03-10T06:50:52.591Z,100.00
2023-03-10T06:55:55.866Z,100.00
2023-03-10T07:00:59.100Z,100.00
2023-03-10T07:06:11.607Z,100.00
2023-03-10T07:11:25.298Z,100.00
2023-03-10T07:16:28.007Z,100.00
2023-03-10T07:21:32.231Z,100.00
2023-03-10T07:26:34.863Z,100.00
2023-03-10T07:31:37.740Z,100.00
2023-03-10T07:36:40.068Z,100.00
2023-03-10T07:41:52.406Z,100.00
2023-03-10T07:46:55.633Z,100.00
2023-03-10T07:51:59.247Z,100.00
2023-03-10T07:57:01.750Z,100.00
2023-03-10T08:02:14.149Z,100.00
2023-03-10T08:07:17.165Z,100.00
2023-03-10T08:12:29.485Z,100.00
2023-03-10T08:17:33.476Z,100.00
2023-03-10T08:22:36.335Z,100.00
2023-03-10T08:27:39.017Z,100.00
2023-03-10T08:32:41.667Z,100.00
2023-03-10T08:37:44.397Z,100.00
2023-03-10T08:42:48.489Z,100.00
2023-03-10T08:47:51.217Z,100.00
2023-03-10T08:52:53.649Z,100.00
2023-03-10T08:57:56.042Z,100.00
2023-03-10T09:02:58.520Z,100.00
2023-03-10T09:08:01.109Z,99.79
2023-03-10T09:13:13.731Z,96.35
2023-03-10T09:18:17.494Z,92.24
2023-03-10T09:23:29.949Z,91.36
2023-03-10T09:28:32.654Z,90.77
2023-03-10T09:33:35.038Z,85.85
2023-03-10T09:38:37.397Z,84.60
2023-03-10T09:43:39.734Z,80.84
2023-03-10T09:48:42.087Z,81.55
2023-03-10T09:53:48.086Z,78.61
2023-03-10T09:58:51.878Z,72.83
2023-03-10T10:03:54.549Z,72.64
2023-03-10T10:09:04.340Z,77.79
2023-03-10T10:14:13.142Z,100.00
2023-03-10T10:19:18.251Z,100.00
2023-03-10T10:24:21.403Z,100.00
2023-03-10T10:29:23.732Z,100.00
2023-03-10T10:34:26.350Z,100.00
2023-03-10T10:39:31.334Z,100.00
2023-03-10T10:44:37.627Z,100.00
2023-03-10T10:49:40.173Z,100.00
2023-03-10T10:54:43.653Z,100.00
2023-03-10T10:59:46.370Z,100.00
2023-03-10T11:04:48.652Z,100.00
2023-03-10T11:09:51.061Z,100.00
2023-03-10T11:14:53.387Z,100.00
2023-03-10T11:19:56.107Z,100.00
2023-03-10T11:24:58.434Z,100.00
2023-03-10T11:30:01.707Z,100.00
2023-03-10T11:35:04.396Z,100.00
2023-03-10T11:40:07.681Z,100.00
2023-03-10T11:45:10.206Z,100.00
2023-03-10T11:50:13.119Z,100.00
2023-03-10T11:55:15.666Z,100.00
2023-03-10T12:00:18.819Z,100.00
2023-03-10T12:05:31.271Z,97.63
2023-03-10T12:10:42.271Z,94.96
2023-03-10T12:15:49.667Z,91.49
2023-03-10T12:20:52.768Z,90.04
2023-03-10T12:25:55.919Z,89.42
2023-03-10T12:31:06.708Z,86.08
2023-03-10T12:36:09.400Z,85.10
2023-03-10T12:41:15.416Z,80.04
2023-03-10T12:46:17.896Z,77.25
2023-03-10T12:51:30.245Z,82.84
2023-03-10T12:56:36.713Z,84.48
2023-03-10T13:01:43.269Z,82.89
2023-03-10T13:06:48.788Z,86.05
2023-03-10T13:11:51.464Z,86.79
2023-03-10T13:16:54.543Z,87.19
2023-03-10T13:21:56.985Z,89.04
2023-03-10T13:26:59.332Z,92.11
2023-03-10T13:32:01.730Z,91.77
2023-03-10T13:37:05.112Z,94.31
2023-03-10T13:42:07.494Z,95.07
2023-03-10T13:47:09.923Z,96.53
2023-03-10T13:52:12.259Z,97.15
2023-03-10T13:57:14.645Z,95.72
2023-03-10T14:02:16.977Z,97.18
2023-03-10T14:07:19.489Z,96.90
2023-03-10T14:12:24.978Z,100.00
2023-03-10T14:17:27.809Z,100.00
2023-03-10T14:22:30.308Z,100.00
2023-03-10T14:27:33.131Z,100.00
2023-03-10T14:32:36.404Z,100.00
2023-03-10T14:37:38.774Z,100.00
2023-03-10T14:42:41.442Z,100.00
2023-03-10T14:47:44.074Z,100.00
2023-03-10T14:52:46.633Z,100.00
2023-03-10T14:57:48.959Z,100.00
2023-03-10T15:02:52.126Z,100.00
2023-03-10T15:07:55.303Z,100.00
2023-03-10T15:12:57.671Z,100.00
2023-03-10T15:18:00.052Z,100.00
2023-03-10T15:23:03.172Z,100.00
2023-03-10T15:28:08.757Z,100.00
2023-03-10T15:33:11.895Z,100.00
2023-03-10T15:38:14.253Z,100.00
2023-03-10T15:43:17.388Z,100.00
2023-03-10T15:48:20.796Z,100.00
2023-03-10T15:53:24.328Z,100.00
2023-03-10T15:58:27.019Z,100.00
2023-03-10T16:03:30.928Z,100.00
2023-03-10T16:08:37.393Z,100.00
2023-03-10T16:13:39.864Z,100.00
2023-03-10T16:18:42.616Z,100.00
2023-03-10T16:23:45.019Z,100.00
2023-03-10T16:28:47.341Z,100.00
2023-03-10T16:33:50.595Z,100.00
2023-03-10T16:38:53.444Z,100.00
2023-03-10T16:43:56.168Z,100.00
2023-03-10T16:48:58.501Z,100.00
2023-03-10T16:54:00.837Z,100.00
2023-03-10T16:59:13.211Z,100.00
2023-03-10T17:04:16.003Z,100.00
2023-03-10T17:09:19.097Z,100.00
2023-03-10T17:14:21.456Z,100.00
2023-03-10T17:19:28.645Z,100.00
2023-03-10T17:24:31.350Z,100.00
2023-03-10T17:29:34.508Z,100.00
2023-03-10T17:34:36.902Z,100.00
2023-03-10T17:39:40.659Z,100.00
2023-03-10T17:44:43.762Z,100.00
2023-03-10T17:49:46.182Z,100.00
2023-03-10T17:54:49.030Z,100.00
2023-03-10T17:59:51.791Z,100.00
2023-03-10T18:04:54.116Z,100.00
2023-03-10T18:09:58.277Z,100.00
2023-03-10T18:15:01.071Z,100.00
2023-03-10T18:20:06.554Z,100.00
2023-03-10T18:25:10.413Z,100.00
2023-03-10T18:30:12.961Z,100.00
2023-03-10T18:35:18.102Z,100.00
2023-03-10T18:40:21.270Z,100.00
2023-03-10T18:45:23.703Z,100.00
2023-03-10T18:50:26.789Z,100.00
2023-03-10T18:55:29.381Z,100.00
2023-03-10T19:00:33.385Z,100.00
2023-03-10T19:05:36.508Z,100.00
2023-03-10T19:10:40.158Z,100.00
2023-03-10T19:15:44.598Z,100.00
2023-03-10T19:20:47.088Z,100.00
2023-03-10T19:25:49.432Z,100.00
2023-03-10T19:30:51.821Z,100.00
2023-03-10T19:35:56.097Z,100.00
2023-03-10T19:40:58.561Z,100.00
2023-03-10T19:46:01.761Z,100.00
2023-03-10T19:51:05.565Z,100.00
2023-03-10T19:56:10.098Z,100.00
2023-03-10T20:01:13.376Z,100.00
2023-03-10T20:06:15.924Z,100.00
2023-03-10T20:11:19.725Z,100.00
2023-03-10T20:16:24.337Z,100.00
2023-03-10T20:21:27.826Z,100.00
2023-03-10T20:26:30.644Z,100.00
2023-03-10T20:31:34.431Z,100.00
2023-03-10T20:36:39.704Z,100.00
2023-03-10T20:41:44.545Z,100.00
2023-03-10T20:46:47.739Z,100.00
2023-03-10T20:51:50.019Z,100.00
2023-03-10T20:56:53.812Z,100.00
2023-03-10T21:01:56.137Z,100.00
2023-03-10T21:06:58.547Z,100.00
2023-03-10T21:12:01.759Z,100.00
2023-03-10T21:17:05.310Z,100.00
2023-03-10T21:22:08.179Z,100.00
2023-03-10T21:27:11.297Z,100.00
2023-03-10T21:32:14.056Z,100.00
2023-03-10T21:37:17.276Z,100.00
2023-03-10T21:42:20.237Z,100.00
2023-03-10T21:47:23.708Z,100.00
2023-03-10T21:52:27.570Z,100.00
2023-03-10T21:57:30.077Z,100.00
2023-03-10T22:02:35.549Z,100.00
2023-03-10T22:07:38.548Z,100.00
2023-03-10T22:12:40.936Z,100.00
2023-03-10T22:17:43.254Z,100.00
2023-03-10T22:22:46.353Z,100.00
2023-03-10T22:27:48.693Z,100.00
2023-03-10T22:32:51.865Z,100.00
2023-03-10T22:37:55.197Z,100.00
2023-03-10T22:42:57.910Z,100.00
2023-03-10T22:48:01.203Z,100.00
2023-03-10T22:53:13.927Z,100.00
2023-03-10T22:58:16.729Z,100.00
2023-03-10T23:03:19.910Z,100.00
2023-03-10T23:08:22.320Z,100.00
2023-03-10T23:13:25.403Z,100.00
2023-03-10T23:18:37.689Z,100.00
2023-03-10T23:23:43.624Z,100.00
2023-03-10T23:28:47.334Z,100.00
2023-03-10T23:33:49.636Z,100.00
2023-03-10T23:38:52.842Z,100.00
2023-03-10T23:43:55.940Z,100.00
2023-03-10T23:49:03.657Z,100.00
2023-03-10T23:54:06.833Z,100.00
2023-03-10T23:59:09.272Z,100.00
